sensor_id;sensor_type;location;lat;lon;timestamp;P1;durP1;ratioP1;P2;durP2;ratioP2
75446;SDS011;64024;55.820;37.574;2024-02-23T00:00:49;5.97;;;4.60;;
75446;SDS011;64024;55.820;37.574;2024-02-23T00:03:15;5.63;;;4.78;;
75446;SDS011;64024;55.820;37.574;2024-02-23T00:05:40;6.35;;;4.75;;
75446;SDS011;64024;55.820;37.574;2024-02-23T00:08:06;6.13;;;4.53;;
75446;SDS011;64024;55.820;37.574;2024-02-23T00:10:34;6.07;;;4.43;;
75446;SDS011;64024;55.820;37.574;2024-02-23T00:13:00;5.88;;;4.68;;
75446;SDS011;64024;55.820;37.574;2024-02-23T00:15:26;5.88;;;4.47;;
75446;SDS011;64024;55.820;37.574;2024-02-23T00:17:52;5.75;;;4.82;;
75446;SDS011;64024;55.820;37.574;2024-02-23T00:20:17;6.57;;;4.78;;
75446;SDS011;64024;55.820;37.574;2024-02-23T00:22:43;5.32;;;4.40;;
75446;SDS011;64024;55.820;37.574;2024-02-23T00:25:09;7.10;;;4.95;;
75446;SDS011;64024;55.820;37.574;2024-02-23T00:27:34;6.82;;;5.07;;
75446;SDS011;64024;55.820;37.574;2024-02-23T00:30:00;6.47;;;5.60;;
75446;SDS011;64024;55.820;37.574;2024-02-23T00:32:25;5.72;;;5.07;;
75446;SDS011;64024;55.820;37.574;2024-02-23T00:34:51;7.28;;;4.75;;
75446;SDS011;64024;55.820;37.574;2024-02-23T00:37:17;6.57;;;4.75;;
75446;SDS011;64024;55.820;37.574;2024-02-23T00:39:43;6.32;;;5.22;;
75446;SDS011;64024;55.820;37.574;2024-02-23T00:42:08;6.35;;;4.80;;
75446;SDS011;64024;55.820;37.574;2024-02-23T00:44:34;6.22;;;4.68;;
75446;SDS011;64024;55.820;37.574;2024-02-23T00:46:59;12.15;;;4.30;;
75446;SDS011;64024;55.820;37.574;2024-02-23T00:49:27;7.07;;;5.15;;
75446;SDS011;64024;55.820;37.574;2024-02-23T00:51:53;6.40;;;4.30;;
75446;SDS011;64024;55.820;37.574;2024-02-23T00:54:20;5.90;;;5.20;;
75446;SDS011;64024;55.820;37.574;2024-02-23T00:56:46;7.15;;;4.03;;
75446;SDS011;64024;55.820;37.574;2024-02-23T00:59:11;5.40;;;4.38;;
75446;SDS011;64024;55.820;37.574;2024-02-23T01:01:37;6.57;;;4.80;;
75446;SDS011;64024;55.820;37.574;2024-02-23T01:04:03;5.03;;;4.45;;
75446;SDS011;64024;55.820;37.574;2024-02-23T01:06:28;5.55;;;4.70;;
75446;SDS011;64024;55.820;37.574;2024-02-23T01:08:54;5.30;;;4.38;;
75446;SDS011;64024;55.820;37.574;2024-02-23T01:11:20;5.38;;;4.28;;
75446;SDS011;64024;55.820;37.574;2024-02-23T01:13:45;5.97;;;4.90;;
75446;SDS011;64024;55.820;37.574;2024-02-23T01:16:11;6.35;;;4.78;;
75446;SDS011;64024;55.820;37.574;2024-02-23T01:18:37;7.90;;;4.95;;
75446;SDS011;64024;55.820;37.574;2024-02-23T01:21:03;5.72;;;4.57;;
75446;SDS011;64024;55.820;37.574;2024-02-23T01:23:28;6.72;;;5.05;;
75446;SDS011;64024;55.820;37.574;2024-02-23T01:25:54;5.93;;;4.75;;
75446;SDS011;64024;55.820;37.574;2024-02-23T01:28:20;4.72;;;3.80;;
75446;SDS011;64024;55.820;37.574;2024-02-23T01:30:45;6.40;;;4.68;;
75446;SDS011;64024;55.820;37.574;2024-02-23T01:33:11;6.47;;;3.97;;
75446;SDS011;64024;55.820;37.574;2024-02-23T01:35:36;5.65;;;4.25;;
75446;SDS011;64024;55.820;37.574;2024-02-23T01:38:02;5.78;;;4.55;;
75446;SDS011;64024;55.820;37.574;2024-02-23T01:40:28;6.55;;;4.72;;
75446;SDS011;64024;55.820;37.574;2024-02-23T01:43:03;5.60;;;4.57;;
75446;SDS011;64024;55.820;37.574;2024-02-23T01:45:30;5.20;;;3.92;;
75446;SDS011;64024;55.820;37.574;2024-02-23T01:47:56;4.57;;;3.70;;
75446;SDS011;64024;55.820;37.574;2024-02-23T01:50:23;5.35;;;4.53;;
75446;SDS011;64024;55.820;37.574;2024-02-23T01:52:50;5.78;;;3.83;;
75446;SDS011;64024;55.820;37.574;2024-02-23T01:57:44;5.60;;;3.85;;
75446;SDS011;64024;55.820;37.574;2024-02-23T02:00:11;5.57;;;3.92;;
75446;SDS011;64024;55.820;37.574;2024-02-23T02:02:42;4.60;;;3.90;;
75446;SDS011;64024;55.820;37.574;2024-02-23T02:05:08;6.00;;;4.10;;
75446;SDS011;64024;55.820;37.574;2024-02-23T02:07:34;5.57;;;3.75;;
75446;SDS011;64024;55.820;37.574;2024-02-23T02:10:00;4.53;;;3.30;;
75446;SDS011;64024;55.820;37.574;2024-02-23T02:12:28;4.68;;;3.17;;
75446;SDS011;64024;55.820;37.574;2024-02-23T02:14:54;6.70;;;3.55;;
75446;SDS011;64024;55.820;37.574;2024-02-23T02:17:21;4.68;;;3.63;;
75446;SDS011;64024;55.820;37.574;2024-02-23T02:19:50;4.35;;;3.15;;
75446;SDS011;64024;55.820;37.574;2024-02-23T02:22:15;4.20;;;3.30;;
75446;SDS011;64024;55.820;37.574;2024-02-23T02:24:41;4.50;;;3.55;;
75446;SDS011;64024;55.820;37.574;2024-02-23T02:27:09;4.80;;;3.45;;
75446;SDS011;64024;55.820;37.574;2024-02-23T02:29:35;3.58;;;2.80;;
75446;SDS011;64024;55.820;37.574;2024-02-23T02:32:01;4.97;;;3.28;;
75446;SDS011;64024;55.820;37.574;2024-02-23T02:34:27;4.60;;;3.13;;
75446;SDS011;64024;55.820;37.574;2024-02-23T02:36:54;3.83;;;2.95;;
75446;SDS011;64024;55.820;37.574;2024-02-23T02:39:20;5.55;;;3.38;;
75446;SDS011;64024;55.820;37.574;2024-02-23T02:41:47;5.32;;;3.65;;
75446;SDS011;64024;55.820;37.574;2024-02-23T02:44:13;5.35;;;4.15;;
75446;SDS011;64024;55.820;37.574;2024-02-23T02:46:40;4.97;;;3.70;;
75446;SDS011;64024;55.820;37.574;2024-02-23T02:49:07;5.07;;;3.63;;
75446;SDS011;64024;55.820;37.574;2024-02-23T02:51:32;5.13;;;3.33;;
75446;SDS011;64024;55.820;37.574;2024-02-23T02:53:58;5.68;;;3.85;;
75446;SDS011;64024;55.820;37.574;2024-02-23T02:56:23;6.18;;;4.30;;
75446;SDS011;64024;55.820;37.574;2024-02-23T02:58:49;7.38;;;4.28;;
75446;SDS011;64024;55.820;37.574;2024-02-23T03:01:15;14.35;;;6.75;;
75446;SDS011;64024;55.820;37.574;2024-02-23T03:03:40;6.97;;;4.55;;
75446;SDS011;64024;55.820;37.574;2024-02-23T03:06:06;6.07;;;4.28;;
75446;SDS011;64024;55.820;37.574;2024-02-23T03:08:32;6.03;;;4.22;;
75446;SDS011;64024;55.820;37.574;2024-02-23T03:10:58;5.18;;;4.13;;
75446;SDS011;64024;55.820;37.574;2024-02-23T03:13:24;5.47;;;4.45;;
75446;SDS011;64024;55.820;37.574;2024-02-23T03:15:49;6.05;;;4.03;;
75446;SDS011;64024;55.820;37.574;2024-02-23T03:18:15;5.47;;;4.05;;
75446;SDS011;64024;55.820;37.574;2024-02-23T03:20:41;7.03;;;4.57;;
75446;SDS011;64024;55.820;37.574;2024-02-23T03:23:07;6.03;;;4.47;;
75446;SDS011;64024;55.820;37.574;2024-02-23T03:25:33;6.63;;;4.38;;
75446;SDS011;64024;55.820;37.574;2024-02-23T03:27:59;7.15;;;4.05;;
75446;SDS011;64024;55.820;37.574;2024-02-23T03:30:25;7.40;;;4.35;;
75446;SDS011;64024;55.820;37.574;2024-02-23T03:32:51;6.57;;;4.57;;
75446;SDS011;64024;55.820;37.574;2024-02-23T03:35:16;6.28;;;4.38;;
75446;SDS011;64024;55.820;37.574;2024-02-23T03:37:42;5.53;;;4.40;;
75446;SDS011;64024;55.820;37.574;2024-02-23T03:40:08;6.28;;;3.80;;
75446;SDS011;64024;55.820;37.574;2024-02-23T03:42:35;6.03;;;4.60;;
75446;SDS011;64024;55.820;37.574;2024-02-23T03:45:01;5.72;;;4.22;;
75446;SDS011;64024;55.820;37.574;2024-02-23T03:47:27;6.22;;;3.80;;
75446;SDS011;64024;55.820;37.574;2024-02-23T03:49:54;6.15;;;4.15;;
75446;SDS011;64024;55.820;37.574;2024-02-23T03:52:19;6.05;;;4.20;;
75446;SDS011;64024;55.820;37.574;2024-02-23T03:54:45;5.57;;;4.00;;
75446;SDS011;64024;55.820;37.574;2024-02-23T03:57:11;8.00;;;4.78;;
75446;SDS011;64024;55.820;37.574;2024-02-23T03:59:36;7.20;;;4.78;;
75446;SDS011;64024;55.820;37.574;2024-02-23T04:02:03;6.22;;;4.28;;
75446;SDS011;64024;55.820;37.574;2024-02-23T04:04:29;7.28;;;4.70;;
75446;SDS011;64024;55.820;37.574;2024-02-23T04:06:55;6.47;;;4.88;;
75446;SDS011;64024;55.820;37.574;2024-02-23T04:09:20;6.97;;;4.10;;
75446;SDS011;64024;55.820;37.574;2024-02-23T04:11:49;6.57;;;4.35;;
75446;SDS011;64024;55.820;37.574;2024-02-23T04:14:14;6.95;;;4.55;;
75446;SDS011;64024;55.820;37.574;2024-02-23T04:16:40;7.15;;;4.82;;
75446;SDS011;64024;55.820;37.574;2024-02-23T04:19:06;7.00;;;4.50;;
75446;SDS011;64024;55.820;37.574;2024-02-23T04:21:32;6.15;;;4.38;;
75446;SDS011;64024;55.820;37.574;2024-02-23T04:23:57;6.22;;;4.75;;
75446;SDS011;64024;55.820;37.574;2024-02-23T04:26:23;7.47;;;4.97;;
75446;SDS011;64024;55.820;37.574;2024-02-23T04:28:49;7.18;;;4.38;;
75446;SDS011;64024;55.820;37.574;2024-02-23T04:31:14;7.22;;;5.13;;
75446;SDS011;64024;55.820;37.574;2024-02-23T04:33:40;8.63;;;5.90;;
75446;SDS011;64024;55.820;37.574;2024-02-23T04:36:06;7.72;;;5.60;;
75446;SDS011;64024;55.820;37.574;2024-02-23T04:38:32;8.15;;;5.38;;
75446;SDS011;64024;55.820;37.574;2024-02-23T04:41:02;6.95;;;4.47;;
75446;SDS011;64024;55.820;37.574;2024-02-23T04:43:29;6.18;;;4.82;;
75446;SDS011;64024;55.820;37.574;2024-02-23T04:45:54;6.72;;;4.47;;
75446;SDS011;64024;55.820;37.574;2024-02-23T04:48:20;6.45;;;4.68;;
75446;SDS011;64024;55.820;37.574;2024-02-23T04:50:46;6.50;;;4.40;;
75446;SDS011;64024;55.820;37.574;2024-02-23T04:53:11;7.40;;;4.55;;
75446;SDS011;64024;55.820;37.574;2024-02-23T04:55:37;7.10;;;4.45;;
75446;SDS011;64024;55.820;37.574;2024-02-23T04:58:02;6.80;;;4.40;;
75446;SDS011;64024;55.820;37.574;2024-02-23T05:00:28;8.40;;;4.90;;
75446;SDS011;64024;55.820;37.574;2024-02-23T05:03:00;6.95;;;4.78;;
75446;SDS011;64024;55.820;37.574;2024-02-23T05:05:29;6.63;;;3.38;;
75446;SDS011;64024;55.820;37.574;2024-02-23T05:07:55;7.70;;;4.22;;
75446;SDS011;64024;55.820;37.574;2024-02-23T05:10:21;5.57;;;3.50;;
75446;SDS011;64024;55.820;37.574;2024-02-23T05:12:48;6.20;;;4.25;;
75446;SDS011;64024;55.820;37.574;2024-02-23T05:15:14;4.97;;;3.63;;
75446;SDS011;64024;55.820;37.574;2024-02-23T05:17:39;6.47;;;4.13;;
75446;SDS011;64024;55.820;37.574;2024-02-23T05:20:05;7.95;;;4.43;;
75446;SDS011;64024;55.820;37.574;2024-02-23T05:22:33;5.03;;;4.38;;
75446;SDS011;64024;55.820;37.574;2024-02-23T05:24:59;7.95;;;3.92;;
75446;SDS011;64024;55.820;37.574;2024-02-23T05:27:25;5.47;;;4.03;;
75446;SDS011;64024;55.820;37.574;2024-02-23T05:29:52;5.75;;;4.40;;
75446;SDS011;64024;55.820;37.574;2024-02-23T05:32:18;5.55;;;4.25;;
75446;SDS011;64024;55.820;37.574;2024-02-23T05:34:44;5.32;;;4.25;;
75446;SDS011;64024;55.820;37.574;2024-02-23T05:37:10;6.18;;;4.05;;
75446;SDS011;64024;55.820;37.574;2024-02-23T05:39:35;6.43;;;4.47;;
75446;SDS011;64024;55.820;37.574;2024-02-23T05:42:03;5.90;;;4.30;;
75446;SDS011;64024;55.820;37.574;2024-02-23T05:44:29;7.10;;;5.15;;
75446;SDS011;64024;55.820;37.574;2024-02-23T05:46:55;6.95;;;4.65;;
75446;SDS011;64024;55.820;37.574;2024-02-23T05:49:20;7.25;;;3.97;;
75446;SDS011;64024;55.820;37.574;2024-02-23T05:51:46;7.72;;;4.72;;
75446;SDS011;64024;55.820;37.574;2024-02-23T05:54:11;7.47;;;4.78;;
75446;SDS011;64024;55.820;37.574;2024-02-23T05:56:37;5.72;;;3.92;;
75446;SDS011;64024;55.820;37.574;2024-02-23T05:59:03;7.10;;;4.75;;
75446;SDS011;64024;55.820;37.574;2024-02-23T06:01:28;7.22;;;4.63;;
75446;SDS011;64024;55.820;37.574;2024-02-23T06:03:54;6.05;;;4.57;;
75446;SDS011;64024;55.820;37.574;2024-02-23T06:06:20;7.40;;;4.57;;
75446;SDS011;64024;55.820;37.574;2024-02-23T06:08:46;6.75;;;4.22;;
75446;SDS011;64024;55.820;37.574;2024-02-23T06:11:11;6.25;;;4.30;;
75446;SDS011;64024;55.820;37.574;2024-02-23T06:13:37;7.03;;;4.55;;
75446;SDS011;64024;55.820;37.574;2024-02-23T06:16:04;7.40;;;4.65;;
75446;SDS011;64024;55.820;37.574;2024-02-23T06:18:30;7.30;;;4.53;;
75446;SDS011;64024;55.820;37.574;2024-02-23T06:20:56;7.55;;;5.00;;
75446;SDS011;64024;55.820;37.574;2024-02-23T06:23:21;8.48;;;5.32;;
75446;SDS011;64024;55.820;37.574;2024-02-23T06:25:47;6.88;;;4.30;;
75446;SDS011;64024;55.820;37.574;2024-02-23T06:28:13;7.18;;;4.80;;
75446;SDS011;64024;55.820;37.574;2024-02-23T06:30:57;8.02;;;5.00;;
75446;SDS011;64024;55.820;37.574;2024-02-23T06:33:22;7.45;;;4.57;;
75446;SDS011;64024;55.820;37.574;2024-02-23T06:35:48;8.13;;;4.88;;
75446;SDS011;64024;55.820;37.574;2024-02-23T06:38:14;6.45;;;3.97;;
75446;SDS011;64024;55.820;37.574;2024-02-23T06:40:40;6.45;;;3.97;;
75446;SDS011;64024;55.820;37.574;2024-02-23T06:43:06;6.72;;;4.00;;
75446;SDS011;64024;55.820;37.574;2024-02-23T06:45:31;8.02;;;4.93;;
75446;SDS011;64024;55.820;37.574;2024-02-23T06:47:57;5.95;;;4.43;;
75446;SDS011;64024;55.820;37.574;2024-02-23T06:50:22;7.28;;;4.15;;
75446;SDS011;64024;55.820;37.574;2024-02-23T06:52:48;7.22;;;4.93;;
75446;SDS011;64024;55.820;37.574;2024-02-23T06:55:14;10.25;;;4.72;;
75446;SDS011;64024;55.820;37.574;2024-02-23T06:57:42;9.65;;;6.95;;
75446;SDS011;64024;55.820;37.574;2024-02-23T07:00:08;9.00;;;6.40;;
75446;SDS011;64024;55.820;37.574;2024-02-23T07:02:34;8.65;;;4.95;;
75446;SDS011;64024;55.820;37.574;2024-02-23T07:05:02;6.82;;;4.65;;
75446;SDS011;64024;55.820;37.574;2024-02-23T07:07:30;7.25;;;4.20;;
75446;SDS011;64024;55.820;37.574;2024-02-23T07:09:59;7.07;;;4.03;;
75446;SDS011;64024;55.820;37.574;2024-02-23T07:12:25;6.50;;;4.18;;
75446;SDS011;64024;55.820;37.574;2024-02-23T07:14:57;6.95;;;4.32;;
75446;SDS011;64024;55.820;37.574;2024-02-23T07:17:23;10.90;;;4.60;;
75446;SDS011;64024;55.820;37.574;2024-02-23T07:19:49;7.57;;;5.15;;
75446;SDS011;64024;55.820;37.574;2024-02-23T07:22:16;14.52;;;9.27;;
75446;SDS011;64024;55.820;37.574;2024-02-23T07:25:01;8.15;;;5.68;;
75446;SDS011;64024;55.820;37.574;2024-02-23T07:29:55;7.43;;;4.57;;
75446;SDS011;64024;55.820;37.574;2024-02-23T07:32:21;11.10;;;7.63;;
75446;SDS011;64024;55.820;37.574;2024-02-23T07:34:46;7.60;;;5.07;;
75446;SDS011;64024;55.820;37.574;2024-02-23T07:37:12;6.40;;;4.90;;
75446;SDS011;64024;55.820;37.574;2024-02-23T07:39:39;7.68;;;4.45;;
75446;SDS011;64024;55.820;37.574;2024-02-23T07:42:04;6.53;;;3.60;;
75446;SDS011;64024;55.820;37.574;2024-02-23T07:44:31;6.55;;;3.63;;
75446;SDS011;64024;55.820;37.574;2024-02-23T07:46:57;8.43;;;4.20;;
75446;SDS011;64024;55.820;37.574;2024-02-23T07:49:24;7.10;;;4.28;;
75446;SDS011;64024;55.820;37.574;2024-02-23T07:51:52;7.53;;;3.70;;
75446;SDS011;64024;55.820;37.574;2024-02-23T07:54:17;5.07;;;3.42;;
75446;SDS011;64024;55.820;37.574;2024-02-23T07:56:43;5.93;;;3.50;;
75446;SDS011;64024;55.820;37.574;2024-02-23T07:59:09;9.02;;;6.03;;
75446;SDS011;64024;55.820;37.574;2024-02-23T08:01:35;15.55;;;7.47;;
75446;SDS011;64024;55.820;37.574;2024-02-23T08:06:45;15.93;;;9.25;;
75446;SDS011;64024;55.820;37.574;2024-02-23T08:09:10;11.27;;;6.88;;
75446;SDS011;64024;55.820;37.574;2024-02-23T08:11:36;9.00;;;5.63;;
75446;SDS011;64024;55.820;37.574;2024-02-23T08:14:02;8.00;;;5.90;;
75446;SDS011;64024;55.820;37.574;2024-02-23T08:16:48;6.43;;;4.72;;
75446;SDS011;64024;55.820;37.574;2024-02-23T08:19:14;7.22;;;4.45;;
75446;SDS011;64024;55.820;37.574;2024-02-23T08:21:40;6.78;;;4.55;;
75446;SDS011;64024;55.820;37.574;2024-02-23T08:24:06;6.93;;;3.70;;
75446;SDS011;64024;55.820;37.574;2024-02-23T08:26:32;7.30;;;3.88;;
75446;SDS011;64024;55.820;37.574;2024-02-23T08:28:59;6.43;;;3.47;;
75446;SDS011;64024;55.820;37.574;2024-02-23T08:31:24;7.05;;;3.70;;
75446;SDS011;64024;55.820;37.574;2024-02-23T08:33:50;5.28;;;3.95;;
75446;SDS011;64024;55.820;37.574;2024-02-23T08:36:15;6.60;;;4.18;;
75446;SDS011;64024;55.820;37.574;2024-02-23T08:38:41;5.00;;;3.42;;
75446;SDS011;64024;55.820;37.574;2024-02-23T08:41:07;5.88;;;3.65;;
75446;SDS011;64024;55.820;37.574;2024-02-23T08:43:33;6.10;;;3.70;;
75446;SDS011;64024;55.820;37.574;2024-02-23T08:45:59;7.05;;;3.92;;
75446;SDS011;64024;55.820;37.574;2024-02-23T08:48:25;6.30;;;3.60;;
75446;SDS011;64024;55.820;37.574;2024-02-23T08:50:50;5.57;;;3.88;;
75446;SDS011;64024;55.820;37.574;2024-02-23T08:53:16;4.95;;;3.70;;
75446;SDS011;64024;55.820;37.574;2024-02-23T08:55:42;7.03;;;3.58;;
75446;SDS011;64024;55.820;37.574;2024-02-23T08:58:08;7.30;;;4.35;;
75446;SDS011;64024;55.820;37.574;2024-02-23T09:00:34;6.05;;;3.78;;
75446;SDS011;64024;55.820;37.574;2024-02-23T09:05:27;3.85;;;2.67;;
75446;SDS011;64024;55.820;37.574;2024-02-23T09:07:53;5.63;;;3.20;;
75446;SDS011;64024;55.820;37.574;2024-02-23T09:10:19;5.15;;;3.85;;
75446;SDS011;64024;55.820;37.574;2024-02-23T09:12:45;5.63;;;3.55;;
75446;SDS011;64024;55.820;37.574;2024-02-23T09:15:10;5.65;;;3.53;;
75446;SDS011;64024;55.820;37.574;2024-02-23T09:17:36;6.13;;;3.35;;
75446;SDS011;64024;55.820;37.574;2024-02-23T09:20:02;5.78;;;3.53;;
75446;SDS011;64024;55.820;37.574;2024-02-23T09:22:28;5.55;;;3.53;;
75446;SDS011;64024;55.820;37.574;2024-02-23T09:24:54;4.93;;;3.38;;
75446;SDS011;64024;55.820;37.574;2024-02-23T09:27:21;6.13;;;3.22;;
75446;SDS011;64024;55.820;37.574;2024-02-23T09:29:47;4.55;;;3.30;;
75446;SDS011;64024;55.820;37.574;2024-02-23T09:32:12;5.68;;;3.63;;
75446;SDS011;64024;55.820;37.574;2024-02-23T09:34:38;4.32;;;3.10;;
75446;SDS011;64024;55.820;37.574;2024-02-23T09:37:04;3.55;;;2.63;;
75446;SDS011;64024;55.820;37.574;2024-02-23T09:39:29;4.93;;;3.05;;
75446;SDS011;64024;55.820;37.574;2024-02-23T09:41:55;4.72;;;3.13;;
75446;SDS011;64024;55.820;37.574;2024-02-23T09:44:26;4.35;;;3.08;;
75446;SDS011;64024;55.820;37.574;2024-02-23T09:46:58;4.72;;;2.92;;
75446;SDS011;64024;55.820;37.574;2024-02-23T09:49:24;6.68;;;3.20;;
75446;SDS011;64024;55.820;37.574;2024-02-23T09:51:50;6.00;;;3.20;;
75446;SDS011;64024;55.820;37.574;2024-02-23T09:54:16;5.53;;;3.72;;
75446;SDS011;64024;55.820;37.574;2024-02-23T09:56:42;3.83;;;2.85;;
75446;SDS011;64024;55.820;37.574;2024-02-23T09:59:09;6.43;;;3.70;;
75446;SDS011;64024;55.820;37.574;2024-02-23T10:01:34;5.38;;;3.08;;
75446;SDS011;64024;55.820;37.574;2024-02-23T10:04:01;5.30;;;3.03;;
75446;SDS011;64024;55.820;37.574;2024-02-23T10:06:31;5.30;;;3.72;;
75446;SDS011;64024;55.820;37.574;2024-02-23T10:08:57;4.50;;;3.05;;
75446;SDS011;64024;55.820;37.574;2024-02-23T10:11:23;5.50;;;2.97;;
75446;SDS011;64024;55.820;37.574;2024-02-23T10:13:50;7.38;;;3.28;;
75446;SDS011;64024;55.820;37.574;2024-02-23T10:16:19;5.95;;;3.30;;
75446;SDS011;64024;55.820;37.574;2024-02-23T10:18:49;4.97;;;3.05;;
75446;SDS011;64024;55.820;37.574;2024-02-23T10:21:15;4.18;;;3.03;;
75446;SDS011;64024;55.820;37.574;2024-02-23T10:23:42;6.75;;;3.78;;
75446;SDS011;64024;55.820;37.574;2024-02-23T10:26:09;5.60;;;3.38;;
75446;SDS011;64024;55.820;37.574;2024-02-23T10:28:38;4.45;;;3.00;;
75446;SDS011;64024;55.820;37.574;2024-02-23T10:31:04;6.75;;;4.32;;
75446;SDS011;64024;55.820;37.574;2024-02-23T10:33:30;4.05;;;2.90;;
75446;SDS011;64024;55.820;37.574;2024-02-23T10:35:56;5.05;;;3.53;;
75446;SDS011;64024;55.820;37.574;2024-02-23T10:38:23;5.70;;;3.20;;
75446;SDS011;64024;55.820;37.574;2024-02-23T10:40:50;4.05;;;2.67;;
75446;SDS011;64024;55.820;37.574;2024-02-23T10:43:19;5.13;;;3.25;;
75446;SDS011;64024;55.820;37.574;2024-02-23T10:45:48;4.15;;;2.92;;
75446;SDS011;64024;55.820;37.574;2024-02-23T10:48:14;6.32;;;3.50;;
75446;SDS011;64024;55.820;37.574;2024-02-23T10:50:41;6.28;;;3.50;;
75446;SDS011;64024;55.820;37.574;2024-02-23T10:53:09;4.47;;;2.90;;
75446;SDS011;64024;55.820;37.574;2024-02-23T10:55:37;4.50;;;3.58;;
75446;SDS011;64024;55.820;37.574;2024-02-23T11:06:19;7.43;;;4.30;;
75446;SDS011;64024;55.820;37.574;2024-02-23T11:08:49;6.35;;;3.58;;
75446;SDS011;64024;55.820;37.574;2024-02-23T11:11:16;4.80;;;3.30;;
75446;SDS011;64024;55.820;37.574;2024-02-23T11:13:45;8.27;;;3.92;;
75446;SDS011;64024;55.820;37.574;2024-02-23T11:16:21;5.55;;;3.38;;
75446;SDS011;64024;55.820;37.574;2024-02-23T11:18:48;6.32;;;4.90;;
75446;SDS011;64024;55.820;37.574;2024-02-23T11:21:14;6.88;;;3.78;;
75446;SDS011;64024;55.820;37.574;2024-02-23T11:23:43;7.72;;;3.78;;
75446;SDS011;64024;55.820;37.574;2024-02-23T11:26:18;6.68;;;3.60;;
75446;SDS011;64024;55.820;37.574;2024-02-23T11:28:47;6.57;;;3.60;;
75446;SDS011;64024;55.820;37.574;2024-02-23T11:31:14;8.15;;;5.22;;
75446;SDS011;64024;55.820;37.574;2024-02-23T11:33:47;7.13;;;3.33;;
75446;SDS011;64024;55.820;37.574;2024-02-23T11:36:23;6.65;;;3.95;;
75446;SDS011;64024;55.820;37.574;2024-02-23T11:38:57;7.18;;;3.88;;
75446;SDS011;64024;55.820;37.574;2024-02-23T11:41:24;5.47;;;3.53;;
75446;SDS011;64024;55.820;37.574;2024-02-23T11:43:51;6.80;;;3.58;;
75446;SDS011;64024;55.820;37.574;2024-02-23T11:46:18;4.80;;;2.92;;
75446;SDS011;64024;55.820;37.574;2024-02-23T11:48:44;5.70;;;3.40;;
75446;SDS011;64024;55.820;37.574;2024-02-23T11:51:13;6.78;;;4.30;;
75446;SDS011;64024;55.820;37.574;2024-02-23T11:56:05;6.22;;;4.00;;
75446;SDS011;64024;55.820;37.574;2024-02-23T11:58:34;6.07;;;3.85;;
75446;SDS011;64024;55.820;37.574;2024-02-23T12:01:00;6.90;;;4.50;;
75446;SDS011;64024;55.820;37.574;2024-02-23T12:03:30;5.70;;;3.60;;
75446;SDS011;64024;55.820;37.574;2024-02-23T12:05:57;5.38;;;3.67;;
75446;SDS011;64024;55.820;37.574;2024-02-23T12:08:24;5.68;;;3.40;;
75446;SDS011;64024;55.820;37.574;2024-02-23T12:10:56;5.90;;;3.40;;
75446;SDS011;64024;55.820;37.574;2024-02-23T12:13:25;9.02;;;4.78;;
75446;SDS011;64024;55.820;37.574;2024-02-23T12:15:52;7.00;;;5.35;;
75446;SDS011;64024;55.820;37.574;2024-02-23T12:18:21;6.07;;;4.30;;
75446;SDS011;64024;55.820;37.574;2024-02-23T12:21:03;7.35;;;3.60;;
75446;SDS011;64024;55.820;37.574;2024-02-23T12:23:46;7.50;;;4.70;;
75446;SDS011;64024;55.820;37.574;2024-02-23T12:26:15;4.55;;;3.25;;
75446;SDS011;64024;55.820;37.574;2024-02-23T12:28:42;5.38;;;3.85;;
75446;SDS011;64024;55.820;37.574;2024-02-23T12:31:08;5.13;;;3.47;;
75446;SDS011;64024;55.820;37.574;2024-02-23T12:33:35;6.40;;;3.42;;
75446;SDS011;64024;55.820;37.574;2024-02-23T12:36:03;5.03;;;2.95;;
75446;SDS011;64024;55.820;37.574;2024-02-23T12:38:30;5.55;;;3.15;;
75446;SDS011;64024;55.820;37.574;2024-02-23T12:40:56;5.88;;;3.30;;
75446;SDS011;64024;55.820;37.574;2024-02-23T12:43:22;5.40;;;3.97;;
75446;SDS011;64024;55.820;37.574;2024-02-23T12:45:51;5.97;;;3.50;;
75446;SDS011;64024;55.820;37.574;2024-02-23T12:48:17;5.40;;;3.70;;
75446;SDS011;64024;55.820;37.574;2024-02-23T12:50:44;6.57;;;4.28;;
75446;SDS011;64024;55.820;37.574;2024-02-23T12:53:53;5.13;;;3.40;;
75446;SDS011;64024;55.820;37.574;2024-02-23T12:58:33;6.13;;;4.38;;
75446;SDS011;64024;55.820;37.574;2024-02-23T13:03:25;5.13;;;3.03;;
75446;SDS011;64024;55.820;37.574;2024-02-23T13:05:52;6.05;;;3.63;;
75446;SDS011;64024;55.820;37.574;2024-02-23T13:08:21;7.53;;;4.70;;
75446;SDS011;64024;55.820;37.574;2024-02-23T13:10:48;5.75;;;3.55;;
75446;SDS011;64024;55.820;37.574;2024-02-23T13:13:14;7.07;;;3.97;;
75446;SDS011;64024;55.820;37.574;2024-02-23T13:15:41;6.75;;;3.40;;
75446;SDS011;64024;55.820;37.574;2024-02-23T13:18:07;6.72;;;3.75;;
75446;SDS011;64024;55.820;37.574;2024-02-23T13:20:33;8.38;;;3.53;;
75446;SDS011;64024;55.820;37.574;2024-02-23T13:22:59;10.77;;;4.82;;
75446;SDS011;64024;55.820;37.574;2024-02-23T13:25:24;5.18;;;3.35;;
75446;SDS011;64024;55.820;37.574;2024-02-23T13:27:50;6.68;;;4.40;;
75446;SDS011;64024;55.820;37.574;2024-02-23T13:30:16;6.15;;;3.42;;
75446;SDS011;64024;55.820;37.574;2024-02-23T13:32:41;6.03;;;3.72;;
75446;SDS011;64024;55.820;37.574;2024-02-23T13:35:07;7.60;;;4.30;;
75446;SDS011;64024;55.820;37.574;2024-02-23T13:37:33;6.13;;;3.85;;
75446;SDS011;64024;55.820;37.574;2024-02-23T13:39:59;8.63;;;4.55;;
75446;SDS011;64024;55.820;37.574;2024-02-23T13:42:26;5.43;;;3.72;;
75446;SDS011;64024;55.820;37.574;2024-02-23T13:44:51;6.18;;;4.20;;
75446;SDS011;64024;55.820;37.574;2024-02-23T13:47:17;7.03;;;3.63;;
75446;SDS011;64024;55.820;37.574;2024-02-23T13:49:42;5.95;;;3.75;;
75446;SDS011;64024;55.820;37.574;2024-02-23T13:52:08;6.22;;;4.05;;
75446;SDS011;64024;55.820;37.574;2024-02-23T13:54:34;6.30;;;3.88;;
75446;SDS011;64024;55.820;37.574;2024-02-23T13:56:59;6.15;;;3.60;;
75446;SDS011;64024;55.820;37.574;2024-02-23T13:59:25;5.93;;;4.00;;
75446;SDS011;64024;55.820;37.574;2024-02-23T14:01:51;7.47;;;4.88;;
75446;SDS011;64024;55.820;37.574;2024-02-23T14:04:17;6.35;;;3.80;;
75446;SDS011;64024;55.820;37.574;2024-02-23T14:06:42;8.98;;;4.25;;
75446;SDS011;64024;55.820;37.574;2024-02-23T14:09:08;6.25;;;4.13;;
75446;SDS011;64024;55.820;37.574;2024-02-23T14:11:34;8.32;;;4.50;;
75446;SDS011;64024;55.820;37.574;2024-02-23T14:14:00;7.72;;;4.05;;
75446;SDS011;64024;55.820;37.574;2024-02-23T14:16:28;6.88;;;4.05;;
75446;SDS011;64024;55.820;37.574;2024-02-23T14:18:54;7.82;;;4.82;;
75446;SDS011;64024;55.820;37.574;2024-02-23T14:21:20;6.10;;;4.30;;
75446;SDS011;64024;55.820;37.574;2024-02-23T14:23:47;6.88;;;4.20;;
75446;SDS011;64024;55.820;37.574;2024-02-23T14:26:13;7.07;;;4.55;;
75446;SDS011;64024;55.820;37.574;2024-02-23T14:28:39;5.55;;;3.92;;
75446;SDS011;64024;55.820;37.574;2024-02-23T14:31:05;6.50;;;3.92;;
75446;SDS011;64024;55.820;37.574;2024-02-23T14:33:31;7.00;;;5.47;;
75446;SDS011;64024;55.820;37.574;2024-02-23T14:35:57;7.32;;;4.55;;
75446;SDS011;64024;55.820;37.574;2024-02-23T14:38:23;6.20;;;4.28;;
75446;SDS011;64024;55.820;37.574;2024-02-23T14:40:48;7.88;;;5.35;;
75446;SDS011;64024;55.820;37.574;2024-02-23T14:43:14;8.45;;;4.82;;
75446;SDS011;64024;55.820;37.574;2024-02-23T14:45:40;7.00;;;4.07;;
75446;SDS011;64024;55.820;37.574;2024-02-23T14:48:06;9.35;;;4.47;;
75446;SDS011;64024;55.820;37.574;2024-02-23T14:50:32;7.57;;;4.18;;
75446;SDS011;64024;55.820;37.574;2024-02-23T14:52:58;8.07;;;4.70;;
75446;SDS011;64024;55.820;37.574;2024-02-23T14:55:24;7.30;;;3.80;;